| time (UTC) | temp F | wind direction | speed knots | gust knots | rain 1hr in | rain 24hr in | rain mn in | humidity % | barometer mb |
| 20260906080047 | 64 | 69 | 0.0 | 1.7 | 0.00 | 0.13 | 0.00 | 90 | 1011.1 |
| 20260906074547 | 64 | 81 | 0.0 | 4.3 | 0.00 | 0.13 | 0.00 | 90 | 1010.9 |
| 20260906073045 | 64 | 82 | 0.9 | 2.6 | 0.00 | 0.13 | 0.00 | 90 | 1010.9 |
| 20260906071545 | 64 | 82 | 0.9 | 2.6 | 0.00 | 0.13 | 0.00 | 89 | 1011.0 |
| 20260906070042 | 65 | 82 | 0.0 | 1.7 | 0.00 | 0.13 | 0.00 | 89 | 1011.1 |
| 20260906064540 | 66 | 82 | 0.9 | 2.6 | 0.00 | 0.13 | 0.00 | 88 | 1010.9 |
| 20260906063039 | 66 | 93 | 0.9 | 3.5 | 0.00 | 0.13 | 0.00 | 88 | 1010.8 |
| 20260906061537 | 66 | 100 | 0.0 | 2.6 | 0.00 | 0.13 | 0.00 | 89 | 1010.8 |
| 20260906060036 | 66 | 88 | 0.9 | 2.6 | 0.00 | 0.13 | 0.00 | 91 | 1010.7 |
| 20260906054533 | 67 | 79 | 0.0 | 1.7 | 0.00 | 0.13 | 0.00 | 91 | 1010.8 |
| 20260906053034 | 67 | 79 | 0.9 | 1.7 | 0.00 | 0.13 | 0.00 | 90 | 1010.5 |
| 20260906051532 | 68 | 79 | 0.9 | 2.6 | 0.00 | 0.13 | 0.00 | 89 | 1010.5 |
| 20260906050027 | 69 | 79 | 0.9 | 3.5 | 0.00 | 0.13 | 0.00 | 90 | 1010.3 |
| 20260906044523 | 69 | 79 | 0.9 | 3.5 | 0.00 | 0.13 | 0.00 | 91 | 1010.2 |
| 20260906043020 | 70 | 86 | 0.0 | 2.6 | 0.00 | 0.13 | 0.00 | 91 | 1010.0 |
| 20260906041523 | 71 | 91 | 1.7 | 5.2 | 0.00 | 0.13 | 0.00 | 91 | 1010.0 |
| 20260906040016 | 72 | 67 | 0.0 | 2.6 | 0.00 | 0.13 | 0.00 | 93 | 1010.0 |
| 20260906034513 | 72 | 72 | 0.9 | 2.6 | 0.00 | 0.13 | 0.13 | 94 | 1010.0 |
| 20260906033013 | 72 | 76 | 0.9 | 4.3 | 0.00 | 0.13 | 0.13 | 93 | 1009.8 |
| 20260906031512 | 73 | 66 | 1.7 | 5.2 | 0.00 | 0.13 | 0.13 | 93 | 1009.6 |
| 20260906030012 | 73 | 99 | 1.7 | 5.2 | 0.00 | 0.13 | 0.13 | 93 | 1009.8 |
| 20260906024511 | 73 | 90 | 1.7 | 5.2 | 0.00 | 0.13 | 0.13 | 93 | 1009.7 |
| 20260906023018 | 73 | 99 | 1.7 | 7.0 | 0.00 | 0.13 | 0.13 | 93 | 1009.6 |
| 20260906021514 | 74 | 87 | 1.7 | 5.2 | 0.00 | 0.13 | 0.13 | 93 | 1009.5 |
| 20260906020010 | 74 | 74 | 1.7 | 4.3 | 0.00 | 0.13 | 0.13 | 93 | 1009.6 |
| 20260906014515 | 74 | 92 | 0.9 | 4.3 | 0.00 | 0.13 | 0.13 | 93 | 1009.4 |
| 20260906013009 | 74 | 105 | 0.9 | 4.3 | 0.00 | 0.13 | 0.13 | 93 | 1009.0 |
| 20260906011508 | 75 | 92 | 0.9 | 3.5 | 0.00 | 0.13 | 0.13 | 92 | 1008.9 |
| 20260906010008 | 75 | 75 | 1.7 | 6.1 | 0.00 | 0.13 | 0.13 | 91 | 1008.6 |
| 20260906004510 | 76 | 53 | 0.9 | 2.6 | 0.00 | 0.13 | 0.13 | 92 | 1008.6 |
| 20260906003009 | 76 | 59 | 0.9 | 5.2 | 0.00 | 0.13 | 0.13 | 92 | 1008.3 |
| 20260906001508 | 77 | 55 | 0.9 | 4.3 | 0.00 | 0.13 | 0.13 | 92 | 1008.1 |
| 20260906000006 | 77 | 79 | 0.0 | 3.5 | 0.00 | 0.13 | 0.13 | 91 | 1008.1 |
| 20260905234505 | 77 | 235 | 0.0 | 1.7 | 0.00 | 0.13 | 0.13 | 91 | 1007.9 |
| 20260905233012 | 77 | 235 | 0.0 | 0.9 | 0.00 | 0.13 | 0.13 | 90 | 1007.7 |
| 20260905231504 | 76 | 235 | 0.0 | 0.9 | 0.00 | 0.13 | 0.13 | 90 | 1007.8 |
| 20260905230003 | 75 | 235 | 0.0 | 2.6 | 0.00 | 0.13 | 0.13 | 90 | 1008.0 |
| 20260905224502 | 76 | 236 | 4.3 | 9.6 | 0.00 | 0.13 | 0.13 | 89 | 1008.5 |
| 20260905223003 | 77 | 239 | 0.0 | 0.0 | 0.00 | 0.13 | 0.13 | 89 | 1007.8 |
| 20260905221603 | 76 | 239 | 0.0 | 0.9 | 0.00 | 0.13 | 0.13 | 88 | 1007.7 |
| 20260905220101 | 77 | 239 | 0.0 | 1.7 | 0.00 | 0.13 | 0.13 | 87 | 1007.6 |
| 20260905214559 | 77 | 254 | 1.7 | 4.3 | 0.00 | 0.13 | 0.13 | 83 | 1007.6 |
| 20260905213058 | 79 | 328 | 0.0 | 3.5 | 0.00 | 0.13 | 0.13 | 84 | 1007.6 |
| 20260905211603 | 83 | 201 | 1.7 | 5.2 | 0.00 | 0.13 | 0.13 | 82 | 1007.1 |
| 20260905210057 | 86 | 32 | 0.0 | 3.5 | 0.00 | 0.13 | 0.13 | 76 | 1007.0 |
| 20260905204553 | 87 | 303 | 1.7 | 7.0 | 0.00 | 0.13 | 0.13 | 73 | 1007.3 |
| 20260905203057 | 88 | 306 | 1.7 | 5.2 | 0.00 | 0.13 | 0.13 | 72 | 1007.4 |
| 20260905201553 | 88 | 281 | 2.6 | 5.2 | 0.00 | 0.13 | 0.13 | 72 | 1007.7 |
| 20260905200052 | 88 | 307 | 1.7 | 7.8 | 0.00 | 0.13 | 0.13 | 71 | 1007.8 |
| 20260905194546 | 88 | 243 | 1.7 | 6.1 | 0.00 | 0.13 | 0.13 | 70 | 1007.8 |
| 20260905193102 | 88 | 286 | 1.7 | 5.2 | 0.00 | 0.13 | 0.13 | 72 | 1008.0 |
| 20260905191544 | 88 | 311 | 1.7 | 5.2 | 0.00 | 0.13 | 0.13 | 71 | 1008.2 |
| 20260905190040 | 87 | 259 | 1.7 | 6.1 | 0.00 | 0.13 | 0.13 | 71 | 1008.4 |
| 20260905184540 | 86 | 271 | 1.7 | 5.2 | 0.00 | 0.13 | 0.13 | 71 | 1008.5 |
| 20260905183045 | 86 | 325 | 3.5 | 6.1 | 0.00 | 0.13 | 0.13 | 71 | 1008.7 |
| 20260905181537 | 86 | 267 | 3.5 | 7.0 | 0.00 | 0.13 | 0.13 | 70 | 1008.8 |
| 20260905180036 | 86 | 256 | 2.6 | 7.8 | 0.00 | 0.13 | 0.13 | 71 | 1008.9 |
| 20260905174533 | 85 | 219 | 5.2 | 10.4 | 0.00 | 0.13 | 0.13 | 73 | 1008.9 |
| 20260905173032 | 85 | 258 | 3.5 | 9.6 | 0.00 | 0.13 | 0.13 | 74 | 1008.9 |
| 20260905171535 | 84 | 264 | 5.2 | 8.7 | 0.00 | 0.13 | 0.13 | 75 | 1009.1 |
| 20260905170026 | 83 | 238 | 3.5 | 7.0 | 0.00 | 0.13 | 0.13 | 78 | 1009.2 |
| 20260905164526 | 80 | 283 | 3.5 | 7.8 | 0.12 | 0.13 | 0.13 | 82 | 1009.3 |
| 20260905163023 | 76 | 304 | 1.7 | 4.3 | 0.13 | 0.13 | 0.13 | 92 | 1009.5 |
| 20260905161522 | 72 | 30 | 0.0 | 0.9 | 0.13 | 0.13 | 0.13 | 94 | 1010.0 |
| 20260905160027 | 73 | 99 | 0.0 | 2.6 | 0.12 | 0.12 | 0.12 | 90 | 1010.0 |
| 20260905154520 | 78 | 351 | 0.9 | 3.5 | 0.01 | 0.01 | 0.01 | 83 | 1010.9 |
| 20260905153019 | 81 | 231 | 0.9 | 5.2 | 0.00 | 0.00 | 0.00 | 75 | 1009.8 |
| 20260905151515 | 80 | 273 | 3.5 | 8.7 | 0.00 | 0.00 | 0.00 | 77 | 1009.6 |
| 20260905150013 | 79 | 221 | 2.6 | 5.2 | 0.00 | 0.00 | 0.00 | 79 | 1009.5 |
| 20260905144516 | 78 | 233 | 1.7 | 7.8 | 0.00 | 0.00 | 0.00 | 80 | 1009.4 |
| 20260905143010 | 78 | 228 | 2.6 | 7.8 | 0.00 | 0.00 | 0.00 | 80 | 1009.2 |
| 20260905141506 | 76 | 220 | 3.5 | 8.7 | 0.00 | 0.00 | 0.00 | 82 | 1009.2 |
| 20260905140001 | 75 | 229 | 3.5 | 7.0 | 0.00 | 0.00 | 0.00 | 82 | 1009.6 |
| 20260905134601 | 74 | 248 | 0.0 | 7.8 | 0.00 | 0.00 | 0.00 | 86 | 1009.5 |
| 20260905133059 | 72 | 242 | 0.0 | 5.2 | 0.00 | 0.00 | 0.00 | 88 | 1009.6 |
| 20260905131512 | 71 | 242 | 0.9 | 6.1 | 0.00 | 0.00 | 0.00 | 88 | 1010.1 |